createdAt,value
2018-09-13T00:00:08.149Z,187.60
2018-09-13T00:02:36.439Z,178.33
2018-09-13T00:05:05.157Z,176.03
2018-09-13T00:07:33.482Z,191.17
2018-09-13T00:10:01.810Z,170.40
2018-09-13T00:12:30.183Z,177.57
2018-09-13T00:14:58.527Z,166.43
2018-09-13T00:17:26.848Z,144.83
2018-09-13T00:19:55.132Z,146.40
2018-09-13T00:22:23.446Z,138.37
2018-09-13T00:24:51.735Z,136.17
2018-09-13T00:27:20.099Z,231.87
2018-09-13T00:29:48.393Z,216.27
2018-09-13T00:32:16.761Z,183.10
2018-09-13T00:34:45.055Z,188.80
2018-09-13T00:37:13.417Z,189.00
2018-09-13T00:39:41.720Z,185.10
2018-09-13T00:42:10.027Z,184.07
2018-09-13T00:44:38.496Z,174.57
2018-09-13T00:47:11.010Z,211.47
2018-09-13T00:49:39.311Z,205.73
2018-09-13T00:52:07.629Z,196.50
2018-09-13T00:54:35.987Z,217.07
2018-09-13T00:57:04.327Z,213.43
2018-09-13T00:59:32.605Z,173.43
2018-09-13T01:02:00.906Z,145.10
2018-09-13T01:04:29.374Z,141.83
2018-09-13T01:06:57.654Z,125.93
2018-09-13T01:09:25.979Z,136.37
2018-09-13T01:11:54.251Z,127.60
2018-09-13T01:14:22.544Z,124.73
2018-09-13T01:16:50.885Z,112.80
2018-09-13T01:19:19.267Z,113.23
2018-09-13T01:21:47.581Z,96.07
2018-09-13T01:24:15.959Z,89.93
2018-09-13T01:26:44.283Z,92.07
2018-09-13T01:29:12.585Z,90.17
2018-09-13T01:31:41.074Z,105.63
2018-09-13T01:34:09.344Z,89.07
2018-09-13T01:36:37.715Z,83.07
2018-09-13T01:39:07.880Z,74.63
2018-09-13T01:41:36.368Z,73.17
2018-09-13T01:44:04.659Z,69.30
2018-09-13T01:46:32.947Z,76.17
2018-09-13T01:49:01.262Z,67.83
2018-09-13T01:51:29.566Z,65.03
2018-09-13T01:53:57.839Z,63.93
2018-09-13T01:56:26.126Z,61.37
2018-09-13T01:58:54.517Z,61.10
2018-09-13T02:01:22.847Z,58.67
2018-09-13T02:03:51.148Z,48.47
2018-09-13T02:06:19.403Z,51.77
2018-09-13T02:08:47.692Z,51.33
2018-09-13T02:11:15.999Z,74.63
2018-09-13T02:13:44.292Z,63.73
2018-09-13T02:16:12.566Z,61.67
2018-09-13T02:18:40.857Z,63.03
2018-09-13T02:21:09.145Z,59.37
2018-09-13T02:23:37.421Z,53.90
2018-09-13T02:26:06.034Z,56.70
2018-09-13T02:28:34.374Z,52.10
2018-09-13T02:31:02.638Z,50.97
2018-09-13T02:33:30.928Z,51.27
2018-09-13T02:35:59.203Z,47.30
2018-09-13T02:38:27.463Z,47.47
2018-09-13T02:40:55.752Z,46.97
2018-09-13T02:43:24.023Z,45.40
2018-09-13T02:45:52.475Z,50.10
2018-09-13T02:48:20.957Z,53.00
2018-09-13T02:50:49.419Z,46.43
2018-09-13T02:53:17.725Z,45.53
2018-09-13T02:55:46.059Z,40.57
2018-09-13T02:58:14.407Z,40.60
2018-09-13T03:00:43.024Z,38.87
2018-09-13T03:03:11.328Z,40.37
2018-09-13T03:05:39.686Z,38.70
2018-09-13T03:08:07.998Z,35.80
2018-09-13T03:10:36.255Z,35.03
2018-09-13T03:13:04.725Z,33.93
2018-09-13T03:15:33.003Z,31.37
2018-09-13T03:18:01.281Z,33.50
2018-09-13T03:20:29.565Z,35.77
2018-09-13T03:22:57.871Z,30.53
2018-09-13T03:25:26.174Z,25.97
2018-09-13T03:27:54.458Z,26.80
2018-09-13T03:30:22.763Z,25.30
2018-09-13T03:32:51.065Z,24.93
2018-09-13T03:35:19.377Z,25.93
2018-09-13T03:37:47.674Z,25.47
2018-09-13T03:40:16.045Z,24.83
2018-09-13T03:42:44.326Z,24.57
2018-09-13T03:45:12.602Z,21.20
2018-09-13T03:47:40.870Z,20.40
2018-09-13T03:50:09.145Z,22.37
2018-09-13T03:52:37.402Z,23.10
2018-09-13T03:55:05.708Z,18.87
2018-09-13T03:57:34.030Z,19.83
2018-09-13T04:00:02.316Z,17.63
2018-09-13T04:02:30.591Z,19.37
2018-09-13T04:04:58.898Z,18.97
2018-09-13T04:07:27.265Z,18.50
2018-09-13T04:09:55.610Z,19.90
2018-09-13T04:12:23.903Z,19.87
2018-09-13T04:14:52.226Z,18.37
2018-09-13T04:17:20.503Z,14.60
2018-09-13T04:19:48.780Z,15.13
2018-09-13T04:22:17.707Z,13.90
2018-09-13T04:24:45.975Z,16.80
2018-09-13T04:27:14.591Z,13.43
2018-09-13T04:29:43.239Z,13.33
2018-09-13T04:32:11.636Z,14.67
2018-09-13T04:34:40.214Z,12.27
2018-09-13T04:37:08.891Z,13.67
2018-09-13T04:39:37.203Z,11.70
2018-09-13T04:42:05.466Z,11.53
2018-09-13T04:44:33.763Z,11.40
2018-09-13T04:47:02.051Z,10.53
2018-09-13T04:49:30.316Z,12.37
2018-09-13T04:51:58.639Z,11.47
2018-09-13T04:54:26.907Z,10.03
2018-09-13T04:56:55.182Z,10.70
2018-09-13T04:59:23.454Z,10.37
2018-09-13T05:01:51.803Z,9.03
2018-09-13T05:04:20.096Z,10.10
2018-09-13T05:06:48.350Z,10.67
2018-09-13T05:09:16.632Z,12.20
2018-09-13T05:11:44.923Z,11.00
2018-09-13T05:14:13.201Z,8.67
2018-09-13T05:16:41.563Z,9.83
2018-09-13T05:19:09.894Z,9.40
2018-09-13T05:21:38.180Z,9.07
2018-09-13T05:24:06.432Z,7.70
2018-09-13T05:26:34.738Z,8.07
2018-09-13T05:29:03.059Z,7.73
2018-09-13T05:31:31.353Z,8.03
2018-09-13T05:33:59.671Z,8.00
2018-09-13T05:36:27.985Z,7.63
2018-09-13T05:38:56.390Z,6.83
2018-09-13T05:41:24.570Z,7.30
2018-09-13T05:43:52.866Z,7.93
2018-09-13T05:46:21.167Z,6.17
2018-09-13T05:48:49.498Z,6.03
2018-09-13T05:51:17.782Z,6.63
2018-09-13T05:53:46.135Z,6.30
2018-09-13T05:56:14.411Z,6.90
2018-09-13T05:58:42.695Z,6.73
2018-09-13T06:01:10.963Z,6.70
2018-09-13T06:03:39.245Z,6.23
2018-09-13T06:06:07.553Z,6.50
2018-09-13T06:08:35.827Z,5.60
2018-09-13T06:11:04.104Z,5.83
2018-09-13T06:13:32.384Z,5.87
2018-09-13T06:16:00.780Z,5.43
2018-09-13T06:18:29.139Z,5.87
2018-09-13T06:20:57.417Z,5.17
2018-09-13T06:23:25.693Z,6.33
2018-09-13T06:25:53.955Z,5.17
2018-09-13T06:28:22.247Z,5.00
2018-09-13T06:30:50.815Z,5.03
2018-09-13T06:33:19.101Z,6.47
2018-09-13T06:35:47.383Z,6.20
2018-09-13T06:38:15.695Z,4.70
2018-09-13T06:40:43.977Z,5.07
2018-09-13T06:43:12.251Z,4.90
2018-09-13T06:45:40.531Z,5.33
2018-09-13T06:48:08.819Z,5.87
2018-09-13T06:50:37.076Z,5.40
2018-09-13T06:53:05.449Z,4.80
2018-09-13T06:55:33.702Z,4.37
2018-09-13T06:58:02.008Z,4.57
2018-09-13T07:00:30.372Z,4.37
2018-09-13T07:02:58.646Z,4.57
2018-09-13T07:05:27.278Z,5.10
2018-09-13T07:07:55.534Z,3.63
2018-09-13T07:10:23.819Z,5.00
2018-09-13T07:12:52.180Z,11.60
2018-09-13T07:15:20.507Z,43.07
2018-09-13T07:17:48.794Z,54.17
2018-09-13T07:20:17.143Z,65.37
2018-09-13T07:22:45.480Z,85.77
2018-09-13T07:25:15.393Z,72.53
2018-09-13T07:27:44.480Z,65.87
2018-09-13T07:30:14.483Z,77.00
2018-09-13T07:32:42.788Z,72.00
2018-09-13T07:35:11.163Z,73.27
2018-09-13T07:37:39.443Z,86.70
2018-09-13T07:40:07.713Z,74.20
2018-09-13T07:42:36.049Z,108.77
2018-09-13T07:45:04.527Z,132.13
2018-09-13T07:47:32.831Z,102.43
2018-09-13T07:50:01.115Z,81.90
2018-09-13T07:52:29.423Z,77.37
2018-09-13T07:54:57.699Z,73.03
2018-09-13T07:57:26.010Z,67.13
2018-09-13T07:59:54.357Z,65.17
2018-09-13T08:02:22.657Z,70.70
2018-09-13T08:04:50.937Z,66.30
2018-09-13T08:07:19.255Z,58.30
2018-09-13T08:09:47.519Z,52.20
2018-09-13T08:12:16.051Z,53.33
2018-09-13T08:14:44.236Z,55.70
2018-09-13T08:17:12.785Z,60.50
2018-09-13T08:19:41.136Z,55.07
2018-09-13T08:22:09.516Z,82.40
2018-09-13T08:24:37.750Z,64.80
2018-09-13T08:27:06.157Z,65.53
2018-09-13T08:29:34.420Z,61.00
2018-09-13T08:32:02.754Z,67.43
2018-09-13T08:34:31.111Z,66.23
2018-09-13T08:36:59.475Z,59.90
2018-09-13T08:39:27.711Z,67.30
2018-09-13T08:41:55.996Z,55.97
2018-09-13T08:44:24.357Z,55.73
2018-09-13T08:46:52.681Z,54.43
2018-09-13T08:49:22.211Z,49.50
2018-09-13T08:51:50.633Z,49.67
2018-09-13T08:54:18.944Z,43.97
2018-09-13T08:56:47.283Z,43.57
2018-09-13T08:59:15.557Z,47.83
2018-09-13T09:01:44.843Z,43.00
2018-09-13T09:04:13.176Z,41.37
2018-09-13T09:06:41.487Z,38.17
2018-09-13T09:09:11.344Z,38.97
2018-09-13T09:11:39.688Z,36.83
2018-09-13T09:14:08.142Z,35.33
2018-09-13T09:16:36.431Z,33.27
2018-09-13T09:19:04.950Z,31.37
2018-09-13T09:21:33.242Z,33.50
2018-09-13T09:24:01.642Z,29.83
2018-09-13T09:26:29.908Z,28.47
2018-09-13T09:28:58.205Z,29.03
2018-09-13T09:31:26.503Z,29.37
2018-09-13T09:33:54.842Z,27.37
2018-09-13T09:36:23.099Z,24.17
2018-09-13T09:38:51.369Z,24.43
2018-09-13T09:41:19.659Z,23.80
2018-09-13T09:43:47.940Z,42.57
2018-09-13T09:46:16.226Z,42.00
2018-09-13T09:48:44.707Z,47.93
2018-09-13T09:51:12.988Z,45.57
2018-09-13T09:53:41.249Z,41.40
2018-09-13T09:56:09.566Z,86.33
2018-09-13T09:58:37.786Z,40.17
2018-09-13T10:01:11.827Z,36.70
2018-09-13T10:03:40.090Z,42.17
2018-09-13T10:06:08.818Z,55.50
2018-09-13T10:08:37.087Z,43.53
2018-09-13T10:11:05.364Z,41.37
2018-09-13T10:13:33.631Z,43.60
2018-09-13T10:16:07.370Z,35.93
2018-09-13T10:18:43.356Z,31.80
2018-09-13T10:21:17.161Z,208.27
2018-09-13T10:23:50.670Z,78.43
2018-09-13T10:26:24.456Z,30.23
2018-09-13T10:28:58.552Z,15.83
2018-09-13T10:31:32.214Z,16.83
2018-09-13T10:34:05.988Z,14.73
2018-09-13T10:36:39.766Z,16.37
2018-09-13T10:39:14.118Z,12.27
2018-09-13T10:41:48.156Z,6.33
2018-09-13T10:44:22.020Z,5.73
2018-09-13T10:46:55.842Z,8.20
2018-09-13T10:49:29.686Z,4.97
2018-09-13T10:52:03.232Z,4.90
2018-09-13T10:54:39.555Z,5.77
2018-09-13T10:57:13.421Z,46.77
2018-09-13T10:59:41.836Z,25.93
2018-09-13T11:02:11.070Z,10.10
2018-09-13T11:04:39.628Z,9.30
2018-09-13T11:07:09.342Z,8.10
2018-09-13T11:09:37.806Z,6.43
2018-09-13T11:12:07.035Z,7.93
2018-09-13T11:14:40.577Z,8.60
2018-09-13T11:17:09.041Z,20.53
2018-09-13T11:19:37.399Z,25.77
2018-09-13T11:22:05.945Z,19.80
2018-09-13T11:24:34.250Z,14.53
2018-09-13T11:27:02.710Z,11.80
2018-09-13T11:29:30.959Z,12.90
2018-09-13T11:31:59.236Z,14.40
2018-09-13T11:34:27.512Z,11.23
2018-09-13T11:36:55.804Z,12.63
2018-09-13T11:39:24.079Z,8.10
2018-09-13T11:41:52.356Z,7.43
2018-09-13T11:44:20.742Z,6.43
2018-09-13T11:46:49.004Z,5.93
2018-09-13T11:49:17.283Z,7.17
2018-09-13T11:51:45.570Z,11.73
2018-09-13T11:54:13.863Z,8.13
2018-09-13T11:56:42.172Z,5.40
2018-09-13T11:59:10.464Z,6.63
2018-09-13T12:01:38.747Z,6.33
2018-09-13T12:04:07.042Z,9.80
2018-09-13T12:06:35.324Z,6.97
2018-09-13T12:09:05.974Z,3.53
2018-09-13T12:11:34.243Z,5.60
2018-09-13T12:14:02.568Z,3.13
2018-09-13T12:16:30.820Z,7.03
2018-09-13T12:18:59.107Z,5.57
2018-09-13T12:21:27.399Z,6.80
2018-09-13T12:23:55.708Z,4.93
2018-09-13T12:26:24.139Z,5.03
2018-09-13T12:28:52.459Z,4.60
2018-09-13T12:31:20.715Z,4.63
2018-09-13T12:33:49.050Z,6.50
2018-09-13T12:36:17.335Z,6.40
2018-09-13T12:38:45.602Z,12.07
2018-09-13T12:41:13.949Z,3.47
2018-09-13T12:43:42.235Z,6.33
2018-09-13T12:46:10.567Z,4.30
2018-09-13T12:48:38.860Z,4.23
2018-09-13T12:51:07.179Z,5.30
2018-09-13T12:53:35.427Z,6.23
2018-09-13T12:56:03.690Z,4.70
2018-09-13T12:58:31.984Z,3.70
2018-09-13T13:01:00.248Z,4.20
2018-09-13T13:03:28.549Z,4.40
2018-09-13T13:05:56.812Z,4.17
2018-09-13T13:08:25.081Z,9.20
2018-09-13T13:10:53.355Z,5.90
2018-09-13T13:13:21.646Z,6.27
2018-09-13T13:15:50.047Z,9.00
2018-09-13T13:18:19.378Z,5.60
2018-09-13T13:20:47.681Z,3.80
2018-09-13T13:23:15.944Z,8.20
2018-09-13T13:25:44.205Z,6.43
2018-09-13T13:28:12.479Z,7.17
2018-09-13T13:30:40.775Z,6.20
2018-09-13T13:33:09.067Z,7.27
2018-09-13T13:35:37.363Z,8.63
2018-09-13T13:38:05.667Z,6.90
2018-09-13T13:40:33.951Z,6.43
2018-09-13T13:43:02.252Z,15.23
2018-09-13T13:45:30.540Z,16.53
2018-09-13T13:47:58.922Z,12.70
2018-09-13T13:50:27.246Z,13.03
2018-09-13T13:52:55.599Z,9.37
2018-09-13T13:55:23.884Z,13.57
2018-09-13T13:57:52.232Z,10.10
2018-09-13T14:00:20.601Z,8.50
2018-09-13T14:02:48.891Z,7.30
2018-09-13T14:05:17.176Z,8.67
2018-09-13T14:07:45.553Z,4.30
2018-09-13T14:10:13.873Z,6.23
2018-09-13T14:12:42.252Z,5.37
2018-09-13T14:15:10.580Z,8.33
2018-09-13T14:17:38.867Z,10.57
2018-09-13T14:20:07.163Z,10.40
2018-09-13T14:22:35.440Z,11.77
2018-09-13T14:25:04.053Z,12.07
2018-09-13T14:27:32.363Z,9.87
2018-09-13T14:30:00.655Z,8.43
2018-09-13T14:32:28.982Z,5.87
2018-09-13T14:34:57.287Z,6.67
2018-09-13T14:37:26.067Z,6.53
2018-09-13T14:39:54.356Z,8.50
2018-09-13T14:42:22.625Z,7.83
2018-09-13T14:44:50.924Z,3.73
2018-09-13T14:47:19.287Z,2.97
2018-09-13T14:49:47.565Z,6.20
2018-09-13T14:52:15.881Z,6.33
2018-09-13T14:54:44.169Z,10.63
2018-09-13T14:57:13.539Z,12.00
2018-09-13T14:59:41.864Z,14.63
2018-09-13T15:02:10.181Z,9.77
2018-09-13T15:04:38.502Z,7.37
2018-09-13T15:07:06.810Z,9.77
2018-09-13T15:09:35.145Z,15.83
2018-09-13T15:12:03.486Z,6.63
2018-09-13T15:14:31.812Z,7.90
2018-09-13T15:17:00.145Z,7.37
2018-09-13T15:19:28.444Z,5.77
2018-09-13T15:21:57.089Z,4.50
2018-09-13T15:24:25.434Z,7.93
2018-09-13T15:26:53.698Z,4.43
2018-09-13T15:29:22.297Z,5.53
2018-09-13T15:31:50.592Z,7.07
2018-09-13T15:34:19.011Z,6.83
2018-09-13T15:36:47.363Z,18.37
2018-09-13T15:39:15.676Z,10.23
2018-09-13T15:41:43.965Z,15.50
2018-09-13T15:44:12.329Z,35.63
2018-09-13T15:46:40.746Z,15.63
2018-09-13T15:49:09.231Z,25.30
2018-09-13T15:51:37.723Z,7.50
2018-09-13T15:54:06.217Z,12.87
2018-09-13T15:56:34.696Z,10.77
2018-09-13T15:59:02.988Z,7.67
2018-09-13T16:01:31.280Z,20.03
2018-09-13T16:03:59.628Z,33.90
2018-09-13T16:06:27.927Z,21.37
2018-09-13T16:08:56.203Z,21.40
2018-09-13T16:11:24.574Z,16.97
2018-09-13T16:13:52.891Z,12.87
2018-09-13T16:16:21.211Z,13.70
2018-09-13T16:18:49.491Z,11.07
2018-09-13T16:21:17.830Z,8.33
2018-09-13T16:23:46.104Z,6.77
2018-09-13T16:26:14.552Z,8.57
2018-09-13T16:28:42.787Z,13.33
2018-09-13T16:31:11.095Z,12.00
2018-09-13T16:33:39.359Z,9.00
2018-09-13T16:36:09.567Z,12.87
2018-09-13T16:38:47.634Z,8.63
2018-09-13T16:41:21.366Z,13.53
2018-09-13T16:43:55.249Z,8.57
2018-09-13T16:46:29.075Z,9.77
2018-09-13T16:48:57.503Z,10.87
2018-09-13T16:51:25.807Z,7.80
2018-09-13T16:53:54.144Z,8.63
2018-09-13T16:56:22.445Z,8.43
2018-09-13T16:58:50.756Z,30.73
2018-09-13T17:01:19.332Z,27.37
2018-09-13T17:03:47.684Z,29.30
2018-09-13T17:06:15.955Z,53.17
2018-09-13T17:08:44.249Z,54.90
2018-09-13T17:11:12.552Z,46.83
2018-09-13T17:13:41.036Z,37.07
2018-09-13T17:16:09.331Z,36.90
2018-09-13T17:18:37.686Z,35.73
2018-09-13T17:21:06.100Z,47.73
2018-09-13T17:23:34.508Z,32.93
2018-09-13T17:26:02.870Z,34.80
2018-09-13T17:28:31.196Z,33.50
2018-09-13T17:30:59.529Z,32.90
2018-09-13T17:33:27.827Z,31.77
2018-09-13T17:35:56.187Z,32.10
2018-09-13T17:38:24.518Z,32.40
2018-09-13T17:40:52.822Z,33.70
2018-09-13T17:43:21.232Z,37.90
2018-09-13T17:45:49.569Z,40.17
2018-09-13T17:48:17.885Z,38.47
2018-09-13T17:50:46.181Z,34.47
2018-09-13T17:53:14.493Z,36.63
2018-09-13T17:55:42.845Z,35.20
2018-09-13T17:58:11.151Z,31.37
2018-09-13T18:00:39.441Z,30.57
2018-09-13T18:03:07.766Z,32.67
2018-09-13T18:05:36.127Z,29.77
2018-09-13T18:08:04.505Z,29.17
2018-09-13T18:10:32.775Z,26.20
2018-09-13T18:13:01.161Z,27.43
2018-09-13T18:15:29.513Z,25.97
2018-09-13T18:17:57.862Z,26.17
2018-09-13T18:20:26.199Z,26.93
2018-09-13T18:22:54.527Z,23.27
2018-09-13T18:25:22.940Z,20.43
2018-09-13T18:27:51.277Z,22.63
2018-09-13T18:30:19.581Z,37.70
2018-09-13T18:32:47.928Z,39.83
2018-09-13T18:35:16.405Z,32.30
2018-09-13T18:37:44.709Z,26.40
2018-09-13T18:40:13.107Z,26.33
2018-09-13T18:42:41.386Z,25.80
2018-09-13T18:45:09.837Z,21.53
2018-09-13T18:47:38.103Z,23.33
2018-09-13T18:50:06.440Z,20.27
2018-09-13T18:52:34.782Z,18.97
2018-09-13T18:55:03.111Z,18.67
2018-09-13T18:57:31.435Z,19.77
2018-09-13T18:59:59.849Z,20.43
2018-09-13T19:02:28.135Z,20.93
2018-09-13T19:04:56.440Z,70.77
2018-09-13T19:07:24.855Z,94.83
2018-09-13T19:09:53.203Z,95.57
2018-09-13T19:12:21.508Z,48.27
2018-09-13T19:14:49.877Z,47.23
2018-09-13T19:17:18.313Z,49.20
2018-09-13T19:19:46.561Z,41.90
2018-09-13T19:22:14.970Z,44.30
2018-09-13T19:24:43.300Z,35.47
2018-09-13T19:27:11.627Z,33.13
2018-09-13T19:29:39.923Z,28.23
2018-09-13T19:32:08.303Z,20.20
2018-09-13T19:34:36.643Z,23.67
2018-09-13T19:37:04.994Z,26.47
2018-09-13T19:39:33.451Z,24.20
2018-09-13T19:42:01.795Z,25.70
2018-09-13T19:44:30.093Z,26.60
2018-09-13T19:46:58.530Z,25.40
2018-09-13T19:49:26.827Z,23.77
2018-09-13T19:51:55.123Z,27.30
2018-09-13T19:54:23.441Z,22.97
2018-09-13T19:56:51.783Z,24.80
2018-09-13T19:59:20.094Z,21.90
2018-09-13T20:01:48.396Z,21.83
2018-09-13T20:04:16.711Z,22.97
2018-09-13T20:06:45.072Z,23.83
2018-09-13T20:09:13.370Z,26.27
2018-09-13T20:11:41.742Z,27.67
2018-09-13T20:14:10.119Z,32.37
2018-09-13T20:16:38.395Z,60.20
2018-09-13T20:19:06.883Z,51.77
2018-09-13T20:21:35.175Z,54.03
2018-09-13T20:24:03.454Z,55.93
2018-09-13T20:26:31.790Z,58.43
2018-09-13T20:29:00.196Z,65.27
2018-09-13T20:31:28.415Z,60.20
2018-09-13T20:33:56.728Z,74.13
2018-09-13T20:36:25.061Z,70.60
2018-09-13T20:38:53.425Z,74.20
2018-09-13T20:41:21.819Z,112.10
2018-09-13T20:43:50.108Z,99.17
2018-09-13T20:46:18.427Z,105.77
2018-09-13T20:48:46.799Z,114.03
2018-09-13T20:51:15.077Z,110.37
2018-09-13T20:53:43.383Z,104.17
2018-09-13T20:56:11.683Z,102.17
2018-09-13T20:58:40.052Z,134.90
2018-09-13T21:01:08.734Z,143.23
2018-09-13T21:03:37.188Z,203.73
2018-09-13T21:06:05.500Z,163.77
2018-09-13T21:08:33.893Z,163.73
2018-09-13T21:11:02.246Z,157.43
2018-09-13T21:13:30.590Z,161.03
2018-09-13T21:15:58.923Z,156.67
2018-09-13T21:18:27.242Z,158.30
2018-09-13T21:20:55.598Z,159.97
2018-09-13T21:23:23.889Z,162.30
2018-09-13T21:25:52.217Z,173.63
2018-09-13T21:28:20.515Z,170.97
2018-09-13T21:30:48.816Z,174.53
2018-09-13T21:33:17.144Z,171.40
2018-09-13T21:35:45.486Z,159.77
2018-09-13T21:38:13.811Z,155.70
2018-09-13T21:40:42.155Z,148.57
2018-09-13T21:43:10.465Z,141.93
2018-09-13T21:45:38.832Z,138.73
2018-09-13T21:48:07.171Z,132.27
2018-09-13T21:50:35.470Z,132.77
2018-09-13T21:53:03.763Z,128.40
2018-09-13T21:55:32.062Z,123.17
2018-09-13T21:58:00.365Z,104.83
2018-09-13T22:00:28.714Z,113.37
2018-09-13T22:02:57.006Z,115.87
2018-09-13T22:05:25.303Z,120.33
2018-09-13T22:07:53.621Z,112.00
2018-09-13T22:10:21.943Z,105.90
2018-09-13T22:12:50.310Z,137.37
2018-09-13T22:15:18.683Z,116.63
2018-09-13T22:17:46.983Z,128.57
2018-09-13T22:20:15.322Z,152.43
2018-09-13T22:22:43.704Z,174.77
2018-09-13T22:25:12.019Z,160.93
2018-09-13T22:27:40.310Z,150.67
2018-09-13T22:30:08.679Z,144.00
2018-09-13T22:32:37.089Z,143.20
2018-09-13T22:35:05.411Z,140.37
2018-09-13T22:37:34.407Z,142.73
2018-09-13T22:40:02.702Z,135.60
2018-09-13T22:42:31.615Z,135.10
2018-09-13T22:45:00.988Z,132.73
2018-09-13T22:47:29.934Z,136.00
2018-09-13T22:49:58.547Z,132.67
2018-09-13T22:52:26.847Z,131.13
2018-09-13T22:54:56.941Z,127.57
2018-09-13T22:57:25.230Z,129.87
2018-09-13T22:59:53.813Z,127.67
2018-09-13T23:02:22.095Z,122.33
2018-09-13T23:04:50.396Z,119.70
2018-09-13T23:07:18.695Z,113.57
2018-09-13T23:09:47.014Z,111.97
2018-09-13T23:12:15.307Z,114.03
2018-09-13T23:14:43.573Z,114.03
2018-09-13T23:17:11.897Z,158.70
2018-09-13T23:19:40.239Z,180.00
2018-09-13T23:22:10.475Z,178.93
2018-09-13T23:24:38.832Z,180.63
2018-09-13T23:27:08.703Z,181.90
2018-09-13T23:29:37.379Z,179.47
2018-09-13T23:32:05.752Z,181.77
2018-09-13T23:34:34.055Z,191.33
2018-09-13T23:37:02.378Z,166.87
2018-09-13T23:39:30.937Z,157.10
2018-09-13T23:41:59.099Z,156.63
2018-09-13T23:44:27.442Z,152.10
2018-09-13T23:46:55.728Z,158.67
2018-09-13T23:49:24.064Z,153.90
2018-09-13T23:51:52.402Z,154.00
2018-09-13T23:54:20.777Z,150.03
2018-09-13T23:56:49.157Z,147.47
2018-09-13T23:59:17.465Z,149.67
